createdAt,value
2023-04-01T07:26:56.311Z,98306.08
2023-04-01T07:29:27.648Z,98308.27
2023-04-01T07:32:19.603Z,98310.41
2023-04-01T07:35:01.706Z,98315.17
2023-04-01T07:37:37.578Z,98314.48
2023-04-01T07:40:20.133Z,98319.23
2023-04-01T07:43:18.738Z,98321.44
2023-04-01T07:45:55.158Z,98325.20
2023-04-01T07:48:34.402Z,98325.27
2023-04-01T07:51:15.783Z,98329.67
2023-04-01T07:54:05.020Z,98330.16
2023-04-01T07:57:04.319Z,98330.94
2023-04-01T07:59:58.159Z,98337.45
2023-04-01T08:02:56.016Z,98338.84
2023-04-01T08:05:59.864Z,98343.52
2023-04-01T08:08:45.875Z,98345.55
2023-04-01T08:11:51.782Z,98351.13
2023-04-01T08:15:00.654Z,98353.55
2023-04-01T08:18:04.755Z,98358.08
2023-04-01T08:20:40.631Z,98360.73
2023-04-01T08:23:23.909Z,98361.83
2023-04-01T08:26:25.624Z,98366.27
2023-04-01T08:29:07.904Z,98366.80
2023-04-01T08:31:45.178Z,98368.41
2023-04-01T08:34:27.346Z,98370.67
2023-04-01T08:37:11.746Z,98375.11
2023-04-01T08:39:45.555Z,98374.45
2023-04-01T08:42:38.882Z,98377.64
2023-04-01T08:45:37.052Z,98380.16
2023-04-01T08:48:27.081Z,98382.29
2023-04-01T08:51:25.239Z,98383.08
2023-04-01T08:54:32.904Z,98385.48
2023-04-01T08:57:10.098Z,98389.25
2023-04-01T08:59:57.876Z,98390.75
2023-04-01T09:03:02.519Z,98390.52
2023-04-01T09:05:55.136Z,98388.79
2023-04-01T09:08:34.600Z,98391.30
2023-04-01T09:11:20.776Z,98393.23
2023-04-01T09:14:32.962Z,98396.14
2023-04-01T09:17:52.487Z,98400.30
2023-04-01T09:20:57.370Z,98400.88
2023-04-01T09:23:47.252Z,98405.38
2023-04-01T09:26:48.276Z,98405.15
2023-04-01T09:29:21.977Z,98408.40
2023-04-01T09:32:01.371Z,98412.02
2023-04-01T09:34:54.857Z,98415.64
2023-04-01T09:37:32.812Z,98416.90
2023-04-01T09:40:21.472Z,98418.66
2023-04-01T09:43:28.821Z,98419.88
2023-04-01T09:46:23.463Z,98422.86
2023-04-01T09:49:25.425Z,98424.56
2023-04-01T09:52:19.186Z,98428.45
2023-04-01T09:55:20.928Z,98430.89
2023-04-01T09:58:08.323Z,98434.66
2023-04-01T10:01:07.558Z,98440.77
2023-04-01T10:03:47.259Z,98442.81
2023-04-01T10:06:42.596Z,98445.86
2023-04-01T10:09:19.060Z,98450.16
2023-04-01T10:12:04.218Z,98456.77
2023-04-01T10:14:33.438Z,98457.02
2023-04-01T10:17:13.152Z,98458.45
2023-04-01T10:19:52.288Z,98464.05
2023-04-01T10:22:43.476Z,98471.84
2023-04-01T10:25:19.718Z,98472.25
2023-04-01T10:28:26.222Z,98473.92
2023-04-01T10:31:24.407Z,98478.20
2023-04-01T10:34:07.156Z,98481.29
2023-04-01T10:36:38.146Z,98480.17
2023-04-01T10:39:27.311Z,98482.11
2023-04-01T10:42:36.727Z,98478.55
2023-04-01T10:45:24.232Z,98482.19
2023-04-01T10:48:22.690Z,98478.29
2023-04-01T10:51:13.139Z,98479.66
2023-04-01T10:54:07.988Z,98483.96
2023-04-01T10:56:58.661Z,98485.89
2023-04-01T11:00:26.729Z,98486.29
2023-04-01T11:03:46.731Z,98494.13
2023-04-01T11:07:05.916Z,98494.05
2023-04-01T11:09:39.453Z,98498.11
2023-04-01T11:12:47.570Z,98501.55
2023-04-01T11:15:52.811Z,98507.70
2023-04-01T11:18:44.739Z,98511.73
2023-04-01T11:21:27.333Z,98513.08
2023-04-01T11:24:14.564Z,98511.97
2023-04-01T11:27:08.328Z,98518.47
2023-04-01T11:30:00.257Z,98519.22
2023-04-01T11:32:50.623Z,98522.83
2023-04-01T11:35:27.622Z,98524.95
2023-04-01T11:38:17.363Z,98527.55
2023-04-01T11:41:09.722Z,98533.08
2023-04-01T11:44:14.948Z,98534.14
2023-04-01T11:47:26.982Z,98530.63
2023-04-01T11:50:21.791Z,98535.27
2023-04-01T11:52:50.470Z,98537.64
2023-04-01T11:55:36.806Z,98541.47
2023-04-01T11:58:39.259Z,98550.05
2023-04-01T12:01:31.225Z,98550.71
2023-04-01T12:04:26.664Z,98557.38
2023-04-01T12:07:40.663Z,98554.64
2023-04-01T12:10:25.863Z,98561.75
2023-04-01T12:13:30.547Z,98566.36
2023-04-01T12:16:37.133Z,98576.85
2023-04-01T12:19:42.467Z,98580.02
2023-04-01T12:22:33.971Z,98579.25
2023-04-01T12:25:04.056Z,98583.27
2023-04-01T12:27:46.835Z,98585.98
2023-04-01T12:30:28.025Z,98590.92
2023-04-01T12:33:07.154Z,98592.11
2023-04-01T12:36:08.583Z,98596.71
2023-04-01T12:39:13.523Z,98595.20
2023-04-01T12:41:54.496Z,98603.10
2023-04-01T12:44:31.201Z,98605.98
2023-04-01T12:47:55.976Z,98608.91
2023-04-01T12:50:45.114Z,98617.48
2023-04-01T12:53:36.972Z,98619.49
2023-04-01T12:56:09.294Z,98626.02
2023-04-01T12:59:01.896Z,98622.88
2023-04-01T13:01:39.235Z,98626.19
2023-04-01T13:04:31.291Z,98629.59
2023-04-01T13:07:03.227Z,98630.47
2023-04-01T13:09:52.438Z,98632.30
2023-04-01T13:12:48.028Z,98636.40
2023-04-01T13:15:22.758Z,98641.05
2023-04-01T13:17:52.892Z,98644.84
2023-04-01T13:20:29.324Z,98651.41
2023-04-01T13:23:44.097Z,98652.21
2023-04-01T13:26:19.939Z,98654.71
2023-04-01T13:28:47.265Z,98656.51
2023-04-01T13:31:30.710Z,98656.80
2023-04-01T13:34:16.557Z,98661.27
2023-04-01T13:36:56.885Z,98667.25
2023-04-01T13:39:49.926Z,98665.14
2023-04-01T13:42:29.628Z,98667.99
2023-04-01T13:45:03.803Z,98671.59
2023-04-01T13:47:52.923Z,98673.63
2023-04-01T13:50:48.431Z,98680.95
2023-04-01T13:53:45.637Z,98686.52
2023-04-01T13:56:31.606Z,98691.97
2023-04-01T13:59:21.785Z,98694.23
2023-04-01T14:02:08.765Z,98698.29
2023-04-01T14:04:46.079Z,98698.40
2023-04-01T14:07:31.916Z,98703.08
2023-04-01T14:10:04.147Z,98707.77
2023-04-01T14:12:37.501Z,98711.58
2023-04-01T14:15:22.800Z,98716.04
2023-04-01T14:18:24.921Z,98717.05
2023-04-01T14:21:01.553Z,98718.36
2023-04-01T14:23:51.724Z,98721.63
2023-04-01T14:26:53.066Z,98723.10
2023-04-01T14:30:05.248Z,98726.98
2023-04-01T14:32:41.031Z,98728.04
2023-04-01T14:35:35.209Z,98731.10
2023-04-01T14:38:11.712Z,98737.70
2023-04-01T14:40:55.392Z,98737.96
2023-04-01T14:43:49.637Z,98743.10
2023-04-01T14:46:44.860Z,98756.03
2023-04-01T14:49:21.246Z,98754.90
2023-04-01T14:51:49.541Z,98758.46
2023-04-01T14:54:24.073Z,98765.04
2023-04-01T14:57:02.884Z,98769.78
2023-04-01T14:59:30.962Z,98773.30
2023-04-01T15:02:31.258Z,98776.62
2023-04-01T15:05:33.052Z,98786.18
2023-04-01T15:08:12.229Z,98789.55
2023-04-01T15:11:02.184Z,98792.13
2023-04-01T15:14:00.477Z,98795.48
2023-04-01T15:17:00.874Z,98797.92
2023-04-01T15:19:52.246Z,98805.83
2023-04-01T15:22:40.889Z,98812.05
2023-04-01T15:25:26.891Z,98813.14
2023-04-01T15:28:05.132Z,98816.44
2023-04-01T15:31:06.021Z,98825.23
2023-04-01T15:34:03.791Z,98831.66
2023-04-01T15:36:34.094Z,98834.83
2023-04-01T15:39:21.316Z,98837.59
2023-04-01T15:42:10.507Z,98838.12
2023-04-01T15:44:55.982Z,98837.99
2023-04-01T15:47:26.265Z,98842.42
2023-04-01T15:50:18.347Z,98847.15
2023-04-01T15:53:00.648Z,98852.73
2023-04-01T15:56:11.141Z,98856.47
2023-04-01T15:59:15.970Z,98858.91
2023-04-01T16:01:58.467Z,98860.45
2023-04-01T16:04:34.719Z,98864.15
2023-04-01T16:07:52.746Z,98865.62
2023-04-01T16:10:28.859Z,98871.67
2023-04-01T16:13:24.108Z,98876.85
2023-04-01T16:16:29.118Z,98882.23
2023-04-01T16:19:05.538Z,98889.85
2023-04-01T16:21:46.545Z,98891.73
2023-04-01T16:24:13.724Z,98895.33
2023-04-01T16:26:53.917Z,98898.35
2023-04-01T16:29:31.784Z,98903.85
2023-04-01T16:32:17.738Z,98904.86
2023-04-01T16:34:47.274Z,98907.14
2023-04-01T16:37:31.522Z,98906.32
2023-04-01T16:40:17.364Z,98911.59
2023-04-01T16:42:52.538Z,98915.70
2023-04-01T16:45:34.162Z,98917.35
2023-04-01T16:48:12.637Z,98923.77
2023-04-01T16:50:52.043Z,98927.53
2023-04-01T16:53:31.714Z,98932.05
2023-04-01T16:56:12.413Z,98940.77
2023-04-01T16:59:01.239Z,98941.21
2023-04-01T17:02:03.234Z,98948.37
2023-04-01T17:04:46.063Z,98951.64
2023-04-01T17:07:31.310Z,98954.66
2023-04-01T17:10:20.511Z,98961.02
2023-04-01T17:13:13.893Z,98965.17
2023-04-01T17:15:48.595Z,98969.85
2023-04-01T17:18:43.725Z,98972.79
2023-04-01T17:21:13.692Z,98975.16
2023-04-01T17:24:06.432Z,98978.52
2023-04-01T17:26:55.023Z,98981.55
2023-04-01T17:29:53.201Z,98978.53
2023-04-01T17:32:58.707Z,98981.61
2023-04-01T17:35:52.228Z,98987.85
2023-04-01T17:38:22.928Z,98994.17
2023-04-01T17:41:11.457Z,99001.98
2023-04-01T17:43:41.759Z,99001.34
2023-04-01T17:46:21.204Z,99004.66
2023-04-01T17:48:57.073Z,99005.74
2023-04-01T17:51:37.890Z,99008.38
2023-04-01T17:54:43.802Z,99015.98
2023-04-01T17:57:45.410Z,99019.52
2023-04-01T18:00:54.311Z,99028.17
2023-04-01T18:03:31.487Z,99028.71
2023-04-01T18:06:15.523Z,99035.35
2023-04-01T18:09:11.319Z,99044.55
2023-04-01T18:12:00.205Z,99046.61
2023-04-01T18:14:36.393Z,99052.13
2023-04-01T18:17:27.023Z,99055.14
2023-04-01T18:20:26.511Z,99061.05
2023-04-01T18:23:01.292Z,99063.90
2023-04-01T18:25:38.429Z,99069.49
2023-04-01T18:28:23.052Z,99073.21
2023-04-01T18:31:09.275Z,99078.75
2023-04-01T18:34:04.202Z,99081.16
2023-04-01T18:36:51.123Z,99082.61
2023-04-01T18:39:29.700Z,99081.86
2023-04-01T18:42:09.432Z,99087.80
2023-04-01T18:44:59.136Z,99092.00
2023-04-01T18:47:44.657Z,99091.42
2023-04-01T18:50:26.252Z,99091.60
2023-04-01T18:53:00.929Z,99093.65
2023-04-01T18:55:51.374Z,99096.50
2023-04-01T18:58:30.719Z,99102.96
2023-04-01T19:01:29.372Z,99104.54
2023-04-01T19:03:57.801Z,99107.59
2023-04-01T19:06:42.086Z,99110.74
2023-04-01T19:09:33.769Z,99113.13
2023-04-01T19:12:20.125Z,99113.79
2023-04-01T19:14:56.326Z,99117.86
2023-04-01T19:17:38.564Z,99115.71
2023-04-01T19:20:33.961Z,99123.22
2023-04-01T19:23:25.187Z,99126.33
2023-04-01T19:25:59.712Z,99128.05
2023-04-01T19:28:53.421Z,99132.85
2023-04-01T19:31:53.297Z,99138.42
2023-04-01T19:34:29.661Z,99143.98
2023-04-01T19:37:18.523Z,99146.08
2023-04-01T19:39:51.564Z,99148.84
2023-04-01T19:42:41.545Z,99153.80
2023-04-01T19:45:25.220Z,99153.71
2023-04-01T19:48:01.203Z,99157.20
2023-04-01T19:50:47.704Z,99161.52
2023-04-01T19:53:47.029Z,99164.33
2023-04-01T19:56:22.807Z,99165.98
2023-04-01T19:59:25.190Z,99167.23
2023-04-01T20:02:02.977Z,99175.70
2023-04-01T20:04:55.681Z,99181.15
2023-04-01T20:07:49.842Z,99187.69
2023-04-01T20:10:41.391Z,99191.54
2023-04-01T20:13:27.412Z,99199.34
2023-04-01T20:16:10.530Z,99207.17
2023-04-01T20:18:53.803Z,99204.67
2023-04-01T20:21:37.718Z,99209.25
2023-04-01T20:24:38.159Z,99213.58
2023-04-01T20:27:14.628Z,99217.98
2023-04-01T20:29:56.960Z,99219.07
2023-04-01T20:32:35.320Z,99227.11
2023-04-01T20:35:21.306Z,99227.19
2023-04-01T20:37:59.109Z,99226.36
2023-04-01T20:40:42.628Z,99232.02
2023-04-01T20:43:32.486Z,99239.56
2023-04-01T20:46:01.748Z,99240.08
2023-04-01T20:48:31.703Z,99239.98
2023-04-01T20:51:14.832Z,99244.58
2023-04-01T20:53:54.989Z,99248.85
2023-04-01T20:56:31.332Z,99249.50
2023-04-01T20:59:21.261Z,99251.80
2023-04-01T21:02:03.217Z,99257.67
2023-04-01T21:04:49.210Z,99261.15
2023-04-01T21:07:26.158Z,99262.38
2023-04-01T21:10:08.378Z,99259.52
2023-04-01T21:13:03.954Z,99260.70
2023-04-01T21:15:31.259Z,99265.56
2023-04-01T21:18:22.987Z,99264.56
2023-04-01T21:21:11.281Z,99270.23
2023-04-01T21:23:41.156Z,99270.63
2023-04-01T21:26:21.130Z,99273.11
2023-04-01T21:29:30.362Z,99273.95
2023-04-01T21:32:22.140Z,99274.95
2023-04-01T21:34:59.362Z,99276.58
2023-04-01T21:37:37.588Z,99277.70
2023-04-01T21:40:45.752Z,99278.64
2023-04-01T21:43:46.766Z,99276.83
2023-04-01T21:46:33.002Z,99279.38
2023-04-01T21:49:18.929Z,99276.18
2023-04-01T21:52:04.626Z,99282.11
2023-04-01T21:55:06.504Z,99284.45
2023-04-01T21:57:45.894Z,99289.16
2023-04-01T22:00:19.965Z,99289.52
2023-04-01T22:03:19.872Z,99295.29
2023-04-01T22:06:09.723Z,99298.48
2023-04-01T22:08:44.671Z,99296.36
2023-04-01T22:11:36.085Z,99302.41
2023-04-01T22:14:15.520Z,99302.11
2023-04-01T22:16:55.369Z,99303.46
2023-04-01T22:19:35.842Z,99309.84
2023-04-01T22:22:09.126Z,99307.23
2023-04-01T22:24:55.093Z,99315.73
2023-04-01T22:27:41.844Z,99317.58
2023-04-01T22:30:16.972Z,99316.80
2023-04-01T22:32:51.212Z,99321.05
2023-04-01T22:35:44.524Z,99322.82
2023-04-01T22:38:46.982Z,99324.54
2023-04-01T22:41:46.380Z,99329.19
2023-04-01T22:44:23.688Z,99332.66
2023-04-01T22:47:33.898Z,99335.05
2023-04-01T22:50:12.168Z,99335.62
2023-04-01T22:52:45.884Z,99338.05
2023-04-01T22:55:22.579Z,99341.89
2023-04-01T22:58:04.470Z,99346.35
2023-04-01T23:00:38.566Z,99349.00
2023-04-01T23:03:14.707Z,99353.09
2023-04-01T23:05:51.777Z,99352.59
2023-04-01T23:08:38.051Z,99351.42
2023-04-01T23:11:08.095Z,99351.11
2023-04-01T23:13:49.469Z,99355.50
2023-04-01T23:16:19.036Z,99354.53
2023-04-01T23:19:01.268Z,99357.16
2023-04-01T23:21:41.448Z,99359.01
2023-04-01T23:24:31.842Z,99363.77
2023-04-01T23:27:09.180Z,99370.30
2023-04-01T23:29:41.129Z,99374.48
2023-04-01T23:32:18.340Z,99373.90
2023-04-01T23:34:57.389Z,99377.90
2023-04-01T23:37:25.665Z,99375.01
2023-04-01T23:39:55.504Z,99378.50
2023-04-01T23:42:25.183Z,99380.66
2023-04-01T23:45:23.502Z,99384.34
2023-04-01T23:47:51.778Z,99387.85
2023-04-01T23:50:24.202Z,99387.85
2023-04-01T23:53:22.451Z,99394.06
2023-04-01T23:55:49.710Z,99396.15
2023-04-01T23:58:16.865Z,99397.48
